sensor_id;sensor_type;location;lat;lon;timestamp;pressure;altitude;pressure_sealevel;temperature;humidity
65553;BME280;52465;51.560;14.368;2023-07-13T00:08:03;99958.88;;;27.47;53.60
65553;BME280;52465;51.560;14.368;2023-07-13T00:10:28;99954.34;;;27.37;53.55
65553;BME280;52465;51.560;14.368;2023-07-13T00:12:54;99985.22;;;27.50;53.87
65553;BME280;52465;51.560;14.368;2023-07-13T00:15:22;99970.47;;;27.37;53.57
65553;BME280;52465;51.560;14.368;2023-07-13T00:17:48;99984.69;;;27.48;53.66
65553;BME280;52465;51.560;14.368;2023-07-13T00:20:13;99974.50;;;27.45;53.87
65553;BME280;52465;51.560;14.368;2023-07-13T00:22:39;99960.31;;;27.29;53.89
65553;BME280;52465;51.560;14.368;2023-07-13T00:27:16;99973.44;;;27.41;53.60
65553;BME280;52465;51.560;14.368;2023-07-13T00:29:42;99965.34;;;27.46;54.09
65553;BME280;52465;51.560;14.368;2023-07-13T00:32:08;99946.28;;;27.37;53.97
65553;BME280;52465;51.560;14.368;2023-07-13T00:34:33;99964.00;;;27.43;53.95
65553;BME280;52465;51.560;14.368;2023-07-13T00:36:59;99965.88;;;27.43;53.92
65553;BME280;52465;51.560;14.368;2023-07-13T00:39:25;99958.63;;;27.38;54.24
65553;BME280;52465;51.560;14.368;2023-07-13T00:41:51;99954.59;;;27.41;53.88
65553;BME280;52465;51.560;14.368;2023-07-13T00:44:19;99951.94;;;27.36;53.88
65553;BME280;52465;51.560;14.368;2023-07-13T00:51:54;99930.16;;;27.32;54.09
65553;BME280;52465;51.560;14.368;2023-07-13T01:02:18;99929.34;;;27.37;53.86
65553;BME280;52465;51.560;14.368;2023-07-13T01:04:44;99922.66;;;27.34;53.74
65553;BME280;52465;51.560;14.368;2023-07-13T01:07:11;99925.59;;;27.33;53.96
65553;BME280;52465;51.560;14.368;2023-07-13T01:16:37;99960.03;;;27.31;54.22
65553;BME280;52465;51.560;14.368;2023-07-13T01:19:08;99954.66;;;27.26;54.10
65553;BME280;52465;51.560;14.368;2023-07-13T01:25:35;99947.69;;;27.25;54.17
65553;BME280;52465;51.560;14.368;2023-07-13T01:35:56;99959.56;;;27.08;54.31
65553;BME280;52465;51.560;14.368;2023-07-13T01:42:12;99969.19;;;27.20;54.00
65553;BME280;52465;51.560;14.368;2023-07-13T01:46:41;99964.41;;;27.11;54.32
65553;BME280;52465;51.560;14.368;2023-07-13T01:51:18;99968.69;;;27.12;54.05
65553;BME280;52465;51.560;14.368;2023-07-13T01:55:52;99970.28;;;27.13;53.90
65553;BME280;52465;51.560;14.368;2023-07-13T02:04:36;99992.88;;;27.12;54.05
65553;BME280;52465;51.560;14.368;2023-07-13T02:08:53;99979.44;;;27.07;54.23
65553;BME280;52465;51.560;14.368;2023-07-13T02:13:21;99984.00;;;27.12;54.49
65553;BME280;52465;51.560;14.368;2023-07-13T02:15:49;99973.28;;;27.07;54.35
65553;BME280;52465;51.560;14.368;2023-07-13T02:18:15;99981.34;;;27.07;53.97
65553;BME280;52465;51.560;14.368;2023-07-13T02:23:19;99969.19;;;27.04;54.24
65553;BME280;52465;51.560;14.368;2023-07-13T02:25:45;99966.50;;;27.04;54.38
65553;BME280;52465;51.560;14.368;2023-07-13T02:30:22;99956.84;;;26.98;54.19
65553;BME280;52465;51.560;14.368;2023-07-13T02:32:47;99967.06;;;27.01;54.11
65553;BME280;52465;51.560;14.368;2023-07-13T02:35:13;99969.47;;;27.03;54.31
65553;BME280;52465;51.560;14.368;2023-07-13T02:37:38;99967.88;;;27.02;54.17
65553;BME280;52465;51.560;14.368;2023-07-13T02:40:05;99958.50;;;26.94;54.76
65553;BME280;52465;51.560;14.368;2023-07-13T02:42:31;99969.75;;;27.01;54.37
65553;BME280;52465;51.560;14.368;2023-07-13T02:44:56;99964.91;;;26.98;54.68
65553;BME280;52465;51.560;14.368;2023-07-13T02:47:22;99971.91;;;26.99;54.33
65553;BME280;52465;51.560;14.368;2023-07-13T02:49:48;99962.22;;;26.93;54.70
65553;BME280;52465;51.560;14.368;2023-07-13T02:59:19;99956.88;;;26.88;54.52
65553;BME280;52465;51.560;14.368;2023-07-13T03:01:44;99976.22;;;26.95;54.39
65553;BME280;52465;51.560;14.368;2023-07-13T03:06:14;99980.00;;;26.94;54.11
65553;BME280;52465;51.560;14.368;2023-07-13T03:08:40;99978.13;;;26.84;54.22
65553;BME280;52465;51.560;14.368;2023-07-13T03:13:19;99977.56;;;26.87;54.38
65553;BME280;52465;51.560;14.368;2023-07-13T03:23:23;99988.06;;;26.89;54.26
65553;BME280;52465;51.560;14.368;2023-07-13T03:31:16;99984.81;;;26.77;54.34
65553;BME280;52465;51.560;14.368;2023-07-13T03:37:45;99985.91;;;26.71;54.43
65553;BME280;52465;51.560;14.368;2023-07-13T03:40:11;100008.19;;;26.81;54.23
65553;BME280;52465;51.560;14.368;2023-07-13T03:42:37;100021.09;;;26.79;54.30
65553;BME280;52465;51.560;14.368;2023-07-13T03:50:09;100010.88;;;26.71;54.36
65553;BME280;52465;51.560;14.368;2023-07-13T03:54:30;100028.34;;;26.74;54.71
65553;BME280;52465;51.560;14.368;2023-07-13T03:56:56;100047.69;;;26.76;54.55
65553;BME280;52465;51.560;14.368;2023-07-13T03:59:21;100010.91;;;26.56;54.67
65553;BME280;52465;51.560;14.368;2023-07-13T04:01:47;100028.34;;;26.63;54.82
65553;BME280;52465;51.560;14.368;2023-07-13T04:20:10;100043.09;;;26.71;54.52
65553;BME280;52465;51.560;14.368;2023-07-13T04:22:35;100049.84;;;26.69;54.47
65553;BME280;52465;51.560;14.368;2023-07-13T04:27:06;100032.91;;;26.53;54.43
65553;BME280;52465;51.560;14.368;2023-07-13T04:29:31;100036.94;;;26.55;54.24
65553;BME280;52465;51.560;14.368;2023-07-13T04:31:57;100056.81;;;26.64;54.86
65553;BME280;52465;51.560;14.368;2023-07-13T04:34:22;100050.38;;;26.60;54.33
65553;BME280;52465;51.560;14.368;2023-07-13T04:36:47;100046.06;;;26.59;54.37
65553;BME280;52465;51.560;14.368;2023-07-13T04:39:13;100057.88;;;26.63;54.93
65553;BME280;52465;51.560;14.368;2023-07-13T04:41:38;100057.06;;;26.63;54.89
65553;BME280;52465;51.560;14.368;2023-07-13T04:45:55;100067.81;;;26.63;54.67
65553;BME280;52465;51.560;14.368;2023-07-13T04:52:22;100075.59;;;26.64;54.21
65553;BME280;52465;51.560;14.368;2023-07-13T05:00:28;100077.22;;;26.60;54.75
65553;BME280;52465;51.560;14.368;2023-07-13T05:10:04;100083.66;;;26.59;54.62
65553;BME280;52465;51.560;14.368;2023-07-13T05:20:46;100087.94;;;26.45;55.13
65553;BME280;52465;51.560;14.368;2023-07-13T05:24:53;100098.13;;;26.53;54.97
65553;BME280;52465;51.560;14.368;2023-07-13T05:27:19;100095.72;;;26.52;55.22
65553;BME280;52465;51.560;14.368;2023-07-13T05:29:44;100101.91;;;26.52;54.70
65553;BME280;52465;51.560;14.368;2023-07-13T05:32:10;100110.75;;;26.53;54.98
65553;BME280;52465;51.560;14.368;2023-07-13T05:34:35;100107.81;;;26.54;54.90
65553;BME280;52465;51.560;14.368;2023-07-13T05:40:59;100108.88;;;26.53;54.65
65553;BME280;52465;51.560;14.368;2023-07-13T05:43:25;100108.88;;;26.53;54.91
65553;BME280;52465;51.560;14.368;2023-07-13T05:47:45;100118.00;;;26.52;54.88
65553;BME280;52465;51.560;14.368;2023-07-13T05:53:12;100100.28;;;26.41;54.38
65553;BME280;52465;51.560;14.368;2023-07-13T05:57:22;100115.59;;;26.51;55.04
65553;BME280;52465;51.560;14.368;2023-07-13T06:14:16;100110.22;;;26.46;54.62
65553;BME280;52465;51.560;14.368;2023-07-13T06:26:36;100104.00;;;26.40;54.73
65553;BME280;52465;51.560;14.368;2023-07-13T06:31:09;100117.47;;;26.45;54.76
65553;BME280;52465;51.560;14.368;2023-07-13T06:35:48;100109.69;;;26.44;55.03
65553;BME280;52465;51.560;14.368;2023-07-13T06:42:10;100090.00;;;26.28;55.07
65553;BME280;52465;51.560;14.368;2023-07-13T06:44:36;100101.84;;;26.37;55.02
65553;BME280;52465;51.560;14.368;2023-07-13T07:06:01;100110.75;;;26.48;54.63
65553;BME280;52465;51.560;14.368;2023-07-13T07:10:09;100113.19;;;26.49;54.78
65553;BME280;52465;51.560;14.368;2023-07-13T07:18:47;100121.78;;;26.51;54.46
65553;BME280;52465;51.560;14.368;2023-07-13T07:25:00;100133.03;;;26.53;54.37
65553;BME280;52465;51.560;14.368;2023-07-13T07:33:08;100138.16;;;26.55;54.53
65553;BME280;52465;51.560;14.368;2023-07-13T07:37:24;100115.59;;;26.46;54.60
65553;BME280;52465;51.560;14.368;2023-07-13T07:41:52;100145.41;;;26.54;54.50
65553;BME280;52465;51.560;14.368;2023-07-13T07:44:18;100119.34;;;26.45;54.10
65553;BME280;52465;51.560;14.368;2023-07-13T07:46:43;100141.91;;;26.54;54.34
65553;BME280;52465;51.560;14.368;2023-07-13T07:49:09;100140.84;;;26.55;53.97
65553;BME280;52465;51.560;14.368;2023-07-13T07:51:34;100143.78;;;26.53;54.26
65553;BME280;52465;51.560;14.368;2023-07-13T07:54:00;100145.94;;;26.56;54.02
65553;BME280;52465;51.560;14.368;2023-07-13T08:00:09;100141.13;;;26.58;54.12
65553;BME280;52465;51.560;14.368;2023-07-13T08:02:43;100139.22;;;26.59;54.02
65553;BME280;52465;51.560;14.368;2023-07-13T08:07:19;100141.41;;;26.62;53.57
65553;BME280;52465;51.560;14.368;2023-07-13T08:09:44;100134.66;;;26.59;53.78
65553;BME280;52465;51.560;14.368;2023-07-13T08:14:21;100098.31;;;26.31;53.74
65553;BME280;52465;51.560;14.368;2023-07-13T08:24:17;100119.09;;;26.51;53.36
65553;BME280;52465;51.560;14.368;2023-07-13T08:28:41;100152.41;;;26.71;53.13
65553;BME280;52465;51.560;14.368;2023-07-13T08:36:47;100140.88;;;26.70;53.29
65553;BME280;52465;51.560;14.368;2023-07-13T08:39:13;100138.44;;;26.69;52.95
65553;BME280;52465;51.560;14.368;2023-07-13T08:51:04;100104.56;;;26.47;52.88
65553;BME280;52465;51.560;14.368;2023-07-13T09:02:45;100142.75;;;26.70;52.79
65553;BME280;52465;51.560;14.368;2023-07-13T09:15:04;100150.81;;;26.75;52.94
65553;BME280;52465;51.560;14.368;2023-07-13T09:19:19;100143.56;;;26.70;53.08
65553;BME280;52465;51.560;14.368;2023-07-13T09:27:59;100145.41;;;26.64;52.81
65553;BME280;52465;51.560;14.368;2023-07-13T09:30:33;100154.56;;;26.69;53.02
65553;BME280;52465;51.560;14.368;2023-07-13T09:33:02;100159.41;;;26.67;52.46
65553;BME280;52465;51.560;14.368;2023-07-13T09:35:29;100154.56;;;26.69;52.44
65553;BME280;52465;51.560;14.368;2023-07-13T09:46:52;100178.78;;;26.94;51.75
65553;BME280;52465;51.560;14.368;2023-07-13T09:49:18;100173.97;;;27.01;51.63
65553;BME280;52465;51.560;14.368;2023-07-13T09:51:44;100165.63;;;26.98;51.69
65553;BME280;52465;51.560;14.368;2023-07-13T09:54:18;100172.13;;;27.12;51.68
65553;BME280;52465;51.560;14.368;2023-07-13T09:56:44;100178.31;;;27.18;51.27
65553;BME280;52465;51.560;14.368;2023-07-13T09:59:19;100176.44;;;27.23;51.44
65553;BME280;52465;51.560;14.368;2023-07-13T10:01:44;100170.25;;;27.28;51.08
65553;BME280;52465;51.560;14.368;2023-07-13T10:04:11;100179.38;;;27.32;51.46
65553;BME280;52465;51.560;14.368;2023-07-13T10:06:38;100173.47;;;27.35;50.92
65553;BME280;52465;51.560;14.368;2023-07-13T10:11:18;100172.38;;;27.41;51.47
65553;BME280;52465;51.560;14.368;2023-07-13T10:13:46;100181.78;;;27.43;51.09
65553;BME280;52465;51.560;14.368;2023-07-13T10:16:12;100178.84;;;27.45;51.31
65553;BME280;52465;51.560;14.368;2023-07-13T10:18:46;100186.06;;;27.50;51.53
65553;BME280;52465;51.560;14.368;2023-07-13T10:21:15;100190.13;;;27.52;51.48
65553;BME280;52465;51.560;14.368;2023-07-13T10:25:54;100178.00;;;27.55;51.50
65553;BME280;52465;51.560;14.368;2023-07-13T10:28:26;100176.41;;;27.59;50.95
65553;BME280;52465;51.560;14.368;2023-07-13T10:30:55;100174.50;;;27.59;50.98
65553;BME280;52465;51.560;14.368;2023-07-13T10:33:22;100158.66;;;27.63;51.08
65553;BME280;52465;51.560;14.368;2023-07-13T10:35:48;100172.88;;;27.68;51.48
65553;BME280;52465;51.560;14.368;2023-07-13T10:38:20;100164.81;;;27.63;51.60
65553;BME280;52465;51.560;14.368;2023-07-13T10:40:53;100169.16;;;27.70;51.24
65553;BME280;52465;51.560;14.368;2023-07-13T10:43:25;100177.22;;;27.75;51.06
65553;BME280;52465;51.560;14.368;2023-07-13T10:45:53;100177.22;;;27.75;51.45
65553;BME280;52465;51.560;14.368;2023-07-13T10:48:20;100182.03;;;27.78;51.44
65553;BME280;52465;51.560;14.368;2023-07-13T10:50:48;100182.03;;;27.78;51.52
65553;BME280;52465;51.560;14.368;2023-07-13T10:56:00;100180.69;;;27.75;51.22
65553;BME280;52465;51.560;14.368;2023-07-13T10:58:36;100176.13;;;27.76;51.58
65553;BME280;52465;51.560;14.368;2023-07-13T11:01:07;100167.50;;;27.68;51.70
65553;BME280;52465;51.560;14.368;2023-07-13T11:03:35;100191.19;;;27.77;51.61
65553;BME280;52465;51.560;14.368;2023-07-13T11:10:04;100183.91;;;27.77;51.65
65553;BME280;52465;51.560;14.368;2023-07-13T11:12:49;100187.97;;;27.75;51.64
65553;BME280;52465;51.560;14.368;2023-07-13T11:23:18;100181.50;;;27.71;51.86
65553;BME280;52465;51.560;14.368;2023-07-13T11:26:03;100194.97;;;27.71;51.74
65553;BME280;52465;51.560;14.368;2023-07-13T11:28:30;100167.25;;;27.60;51.73
65553;BME280;52465;51.560;14.368;2023-07-13T11:33:59;100179.91;;;27.70;52.00
65553;BME280;52465;51.560;14.368;2023-07-13T11:36:39;100176.94;;;27.71;51.54
65553;BME280;52465;51.560;14.368;2023-07-13T11:39:16;100183.13;;;27.72;51.52
65553;BME280;52465;51.560;14.368;2023-07-13T11:41:51;100161.34;;;27.58;51.51
65553;BME280;52465;51.560;14.368;2023-07-13T11:44:21;100176.94;;;27.71;51.82
65553;BME280;52465;51.560;14.368;2023-07-13T11:46:47;100150.31;;;27.54;52.08
65553;BME280;52465;51.560;14.368;2023-07-13T11:49:16;100170.75;;;27.71;51.93
65553;BME280;52465;51.560;14.368;2023-07-13T11:51:44;100173.44;;;27.71;51.86
65553;BME280;52465;51.560;14.368;2023-07-13T11:54:19;100178.03;;;27.70;51.91
65553;BME280;52465;51.560;14.368;2023-07-13T11:56:53;100173.44;;;27.71;51.43
65553;BME280;52465;51.560;14.368;2023-07-13T11:59:19;100170.75;;;27.71;51.49
65553;BME280;52465;51.560;14.368;2023-07-13T12:01:47;100153.81;;;27.55;51.47
65553;BME280;52465;51.560;14.368;2023-07-13T12:04:21;100171.81;;;27.64;51.95
65553;BME280;52465;51.560;14.368;2023-07-13T12:06:54;100163.75;;;27.54;51.76
65553;BME280;52465;51.560;14.368;2023-07-13T12:09:20;100179.91;;;27.70;51.80
65553;BME280;52465;51.560;14.368;2023-07-13T12:11:45;100172.88;;;27.68;51.77
65553;BME280;52465;51.560;14.368;2023-07-13T12:16:49;100173.97;;;27.67;51.93
65553;BME280;52465;51.560;14.368;2023-07-13T12:19:18;100169.13;;;27.59;51.86
65553;BME280;52465;51.560;14.368;2023-07-13T12:21:45;100166.72;;;27.68;52.33
65553;BME280;52465;51.560;14.368;2023-07-13T12:24:14;100166.72;;;27.68;51.87
65553;BME280;52465;51.560;14.368;2023-07-13T12:26:40;100169.41;;;27.68;52.09
65553;BME280;52465;51.560;14.368;2023-07-13T12:29:07;100160.00;;;27.71;51.78
65553;BME280;52465;51.560;14.368;2023-07-13T12:31:35;100130.16;;;27.57;51.81
65553;BME280;52465;51.560;14.368;2023-07-13T12:34:05;100152.19;;;27.74;52.05
65553;BME280;52465;51.560;14.368;2023-07-13T12:36:33;100153.00;;;27.75;52.24
65553;BME280;52465;51.560;14.368;2023-07-13T12:39:03;100154.59;;;27.76;51.83
65553;BME280;52465;51.560;14.368;2023-07-13T12:41:29;100136.34;;;27.73;51.77
65553;BME280;52465;51.560;14.368;2023-07-13T12:46:27;100149.75;;;27.78;51.95
65553;BME280;52465;51.560;14.368;2023-07-13T12:48:53;100150.59;;;27.78;52.00
65553;BME280;52465;51.560;14.368;2023-07-13T12:51:21;100146.00;;;27.79;52.11
65553;BME280;52465;51.560;14.368;2023-07-13T12:53:49;100123.69;;;27.63;51.74
65553;BME280;52465;51.560;14.368;2023-07-13T12:56:18;100127.19;;;27.74;52.04
65553;BME280;52465;51.560;14.368;2023-07-13T13:01:01;100142.75;;;27.82;51.41
65553;BME280;52465;51.560;14.368;2023-07-13T13:03:30;100132.81;;;27.77;52.09
65553;BME280;52465;51.560;14.368;2023-07-13T13:08:08;100133.59;;;27.78;51.93
65553;BME280;52465;51.560;14.368;2023-07-13T13:10:34;100139.00;;;27.78;51.70
65553;BME280;52465;51.560;14.368;2023-07-13T13:12:59;100133.09;;;27.76;51.89
65553;BME280;52465;51.560;14.368;2023-07-13T13:15:25;100128.78;;;27.75;52.08
65553;BME280;52465;51.560;14.368;2023-07-13T13:17:50;100128.25;;;27.73;51.83
65553;BME280;52465;51.560;14.368;2023-07-13T13:24:21;100135.78;;;27.76;51.46
65553;BME280;52465;51.560;14.368;2023-07-13T13:26:48;100134.16;;;27.75;52.02
65553;BME280;52465;51.560;14.368;2023-07-13T13:29:16;100127.72;;;27.71;51.54
65553;BME280;52465;51.560;14.368;2023-07-13T13:33:37;100127.41;;;27.77;52.06
65553;BME280;52465;51.560;14.368;2023-07-13T13:36:03;100136.28;;;27.78;51.89
65553;BME280;52465;51.560;14.368;2023-07-13T13:38:29;100119.91;;;27.69;51.54
65553;BME280;52465;51.560;14.368;2023-07-13T13:40:54;100138.72;;;27.79;51.77
65553;BME280;52465;51.560;14.368;2023-07-13T13:43:22;100133.59;;;27.78;51.62
65553;BME280;52465;51.560;14.368;2023-07-13T13:47:36;100142.22;;;27.80;51.53
65553;BME280;52465;51.560;14.368;2023-07-13T13:50:04;100129.59;;;27.75;51.46
65553;BME280;52465;51.560;14.368;2023-07-13T13:52:35;100084.72;;;27.45;51.32
65553;BME280;52465;51.560;14.368;2023-07-13T13:55:01;100146.00;;;27.79;51.77
65553;BME280;52465;51.560;14.368;2023-07-13T13:57:28;100133.09;;;27.71;51.34
65553;BME280;52465;51.560;14.368;2023-07-13T13:59:54;100119.09;;;27.68;51.44
65553;BME280;52465;51.560;14.368;2023-07-13T14:02:23;100137.38;;;27.77;51.72
65553;BME280;52465;51.560;14.368;2023-07-13T14:04:54;100137.38;;;27.77;51.36
65553;BME280;52465;51.560;14.368;2023-07-13T14:07:20;100141.69;;;27.78;51.21
65553;BME280;52465;51.560;14.368;2023-07-13T14:09:45;100133.59;;;27.78;51.21
65553;BME280;52465;51.560;14.368;2023-07-13T14:12:10;100145.19;;;27.78;51.18
65553;BME280;52465;51.560;14.368;2023-07-13T14:14:36;100135.25;;;27.79;51.75
65553;BME280;52465;51.560;14.368;2023-07-13T14:17:01;100143.84;;;27.81;50.99
65553;BME280;52465;51.560;14.368;2023-07-13T14:19:27;100145.44;;;27.82;51.48
65553;BME280;52465;51.560;14.368;2023-07-13T14:21:53;100148.13;;;27.82;51.31
65553;BME280;52465;51.560;14.368;2023-07-13T14:24:18;100115.09;;;27.56;50.78
65553;BME280;52465;51.560;14.368;2023-07-13T14:26:45;100113.72;;;27.63;51.06
65553;BME280;52465;51.560;14.368;2023-07-13T14:29:13;100138.97;;;27.83;50.76
65553;BME280;52465;51.560;14.368;2023-07-13T14:37:15;100135.47;;;27.87;50.82
65553;BME280;52465;51.560;14.368;2023-07-13T14:39:42;100133.34;;;27.84;50.63
65553;BME280;52465;51.560;14.368;2023-07-13T14:42:09;100132.53;;;27.84;51.00
65553;BME280;52465;51.560;14.368;2023-07-13T14:44:35;100123.13;;;27.76;50.36
65553;BME280;52465;51.560;14.368;2023-07-13T14:47:03;100134.97;;;27.80;50.64
65553;BME280;52465;51.560;14.368;2023-07-13T14:49:31;100127.41;;;27.77;50.56
65553;BME280;52465;51.560;14.368;2023-07-13T14:52:02;100137.09;;;27.83;50.38
65553;BME280;52465;51.560;14.368;2023-07-13T14:54:28;100133.06;;;27.81;50.67
65553;BME280;52465;51.560;14.368;2023-07-13T14:56:54;100108.63;;;27.67;50.33
65553;BME280;52465;51.560;14.368;2023-07-13T15:15:16;100105.91;;;27.72;50.15
65553;BME280;52465;51.560;14.368;2023-07-13T15:17:44;100124.72;;;27.82;50.26
65553;BME280;52465;51.560;14.368;2023-07-13T15:22:49;100120.69;;;27.85;49.88
65553;BME280;52465;51.560;14.368;2023-07-13T15:27:25;100102.69;;;27.75;50.00
65553;BME280;52465;51.560;14.368;2023-07-13T15:29:50;100118.53;;;27.87;50.23
65553;BME280;52465;51.560;14.368;2023-07-13T15:34:12;100125.78;;;27.86;49.91
65553;BME280;52465;51.560;14.368;2023-07-13T15:36:38;100116.41;;;27.79;49.82
65553;BME280;52465;51.560;14.368;2023-07-13T15:39:04;100120.94;;;27.83;49.81
65553;BME280;52465;51.560;14.368;2023-07-13T15:41:29;100105.13;;;27.72;50.02
65553;BME280;52465;51.560;14.368;2023-07-13T15:43:56;100125.28;;;27.84;49.85
65553;BME280;52465;51.560;14.368;2023-07-13T15:46:22;100123.38;;;27.85;49.95
65553;BME280;52465;51.560;14.368;2023-07-13T15:49:56;100131.47;;;27.85;49.99
65553;BME280;52465;51.560;14.368;2023-07-13T15:52:22;100127.41;;;27.77;49.33
65553;BME280;52465;51.560;14.368;2023-07-13T15:54:49;100134.16;;;27.80;49.39
65553;BME280;52465;51.560;14.368;2023-07-13T15:57:14;100140.63;;;27.84;49.83
65553;BME280;52465;51.560;14.368;2023-07-13T15:59:40;100140.63;;;27.84;49.28
65553;BME280;52465;51.560;14.368;2023-07-13T16:02:12;100139.81;;;27.78;48.90
65553;BME280;52465;51.560;14.368;2023-07-13T16:04:38;100148.41;;;27.80;48.72
65553;BME280;52465;51.560;14.368;2023-07-13T16:07:04;100148.69;;;27.79;49.05
65553;BME280;52465;51.560;14.368;2023-07-13T16:09:30;100150.03;;;27.76;48.65
65553;BME280;52465;51.560;14.368;2023-07-13T16:11:55;100148.41;;;27.75;48.07
65553;BME280;52465;51.560;14.368;2023-07-13T16:14:20;100155.16;;;27.73;47.81
65553;BME280;52465;51.560;14.368;2023-07-13T16:16:46;100151.94;;;27.71;47.72
65553;BME280;52465;51.560;14.368;2023-07-13T16:19:11;100123.97;;;27.51;47.53
65553;BME280;52465;51.560;14.368;2023-07-13T16:21:40;100154.06;;;27.63;46.68
65553;BME280;52465;51.560;14.368;2023-07-13T16:24:16;100173.16;;;27.67;47.18
65553;BME280;52465;51.560;14.368;2023-07-13T16:27:13;100161.06;;;27.64;46.96
65553;BME280;52465;51.560;14.368;2023-07-13T16:31:23;100158.38;;;27.64;46.98
65553;BME280;52465;51.560;14.368;2023-07-13T16:33:48;100149.78;;;27.62;46.86
65553;BME280;52465;51.560;14.368;2023-07-13T16:36:14;100145.19;;;27.58;47.33
65553;BME280;52465;51.560;14.368;2023-07-13T16:44:29;100150.31;;;27.54;46.90
65553;BME280;52465;51.560;14.368;2023-07-13T16:46:56;100161.88;;;27.60;47.42
65553;BME280;52465;51.560;14.368;2023-07-13T16:49:23;100156.47;;;27.60;47.37
65553;BME280;52465;51.560;14.368;2023-07-13T16:51:49;100130.69;;;27.38;47.25
65553;BME280;52465;51.560;14.368;2023-07-13T16:54:15;100163.22;;;27.57;47.41
65553;BME280;52465;51.560;14.368;2023-07-13T16:56:40;100166.72;;;27.58;47.46
65553;BME280;52465;51.560;14.368;2023-07-13T17:01:04;100172.91;;;27.58;47.50
65553;BME280;52465;51.560;14.368;2023-07-13T17:03:29;100177.47;;;27.58;47.01
65553;BME280;52465;51.560;14.368;2023-07-13T17:05:59;100179.38;;;27.57;47.27
65553;BME280;52465;51.560;14.368;2023-07-13T17:26:07;100190.41;;;27.56;47.99
65553;BME280;52465;51.560;14.368;2023-07-13T17:31:56;100195.50;;;27.47;47.48
65553;BME280;52465;51.560;14.368;2023-07-13T17:34:21;100200.88;;;27.52;48.06
65553;BME280;52465;51.560;14.368;2023-07-13T17:36:48;100202.22;;;27.50;48.10
65553;BME280;52465;51.560;14.368;2023-07-13T17:39:15;100214.59;;;27.51;47.72
65553;BME280;52465;51.560;14.368;2023-07-13T17:41:41;100209.47;;;27.49;48.00
65553;BME280;52465;51.560;14.368;2023-07-13T17:44:06;100196.59;;;27.41;48.03
65553;BME280;52465;51.560;14.368;2023-07-13T17:46:33;100213.81;;;27.50;47.59
65553;BME280;52465;51.560;14.368;2023-07-13T17:49:00;100206.78;;;27.49;47.83
65553;BME280;52465;51.560;14.368;2023-07-13T17:51:25;100214.84;;;27.49;48.21
65553;BME280;52465;51.560;14.368;2023-07-13T17:53:51;100216.22;;;27.47;48.22
65553;BME280;52465;51.560;14.368;2023-07-13T17:56:17;100214.03;;;27.43;48.50
65553;BME280;52465;51.560;14.368;2023-07-13T17:58:43;100216.72;;;27.49;48.17
65553;BME280;52465;51.560;14.368;2023-07-13T18:01:09;100218.91;;;27.47;48.57
65553;BME280;52465;51.560;14.368;2023-07-13T18:05:45;100220.78;;;27.46;48.49
65553;BME280;52465;51.560;14.368;2023-07-13T18:10:19;100218.63;;;27.43;48.20
65553;BME280;52465;51.560;14.368;2023-07-13T18:12:45;100218.63;;;27.38;48.61
65553;BME280;52465;51.560;14.368;2023-07-13T18:15:10;100208.41;;;27.25;48.38
65553;BME280;52465;51.560;14.368;2023-07-13T18:19:41;100241.19;;;27.37;48.66
65553;BME280;52465;51.560;14.368;2023-07-13T18:24:16;100230.19;;;27.33;48.08
65553;BME280;52465;51.560;14.368;2023-07-13T18:26:41;100243.88;;;27.32;48.10
65553;BME280;52465;51.560;14.368;2023-07-13T18:29:07;100249.81;;;27.29;48.10
65553;BME280;52465;51.560;14.368;2023-07-13T18:31:35;100240.38;;;27.26;48.59
65553;BME280;52465;51.560;14.368;2023-07-13T18:45:24;100247.91;;;27.19;47.68
65553;BME280;52465;51.560;14.368;2023-07-13T18:47:53;100256.78;;;27.20;48.04
65553;BME280;52465;51.560;14.368;2023-07-13T18:50:21;100251.94;;;27.06;47.88
65553;BME280;52465;51.560;14.368;2023-07-13T18:52:47;100254.56;;;27.01;47.58
65553;BME280;52465;51.560;14.368;2023-07-13T18:57:17;100252.41;;;26.98;47.31
65553;BME280;52465;51.560;14.368;2023-07-13T18:59:43;100280.16;;;27.14;47.14
65553;BME280;52465;51.560;14.368;2023-07-13T19:04:44;100289.00;;;27.09;47.08
65553;BME280;52465;51.560;14.368;2023-07-13T19:07:11;100272.28;;;26.92;47.24
65553;BME280;52465;51.560;14.368;2023-07-13T19:09:37;100282.25;;;27.02;47.13
65553;BME280;52465;51.560;14.368;2023-07-13T19:12:02;100298.16;;;27.08;47.48
65553;BME280;52465;51.560;14.368;2023-07-13T19:14:28;100298.16;;;27.08;47.50
65553;BME280;52465;51.560;14.368;2023-07-13T19:16:53;100295.41;;;27.03;47.28
65553;BME280;52465;51.560;14.368;2023-07-13T19:19:20;100299.22;;;27.07;47.52
65553;BME280;52465;51.560;14.368;2023-07-13T19:21:47;100302.16;;;27.06;47.66
65553;BME280;52465;51.560;14.368;2023-07-13T19:24:17;100301.59;;;27.04;47.41
65553;BME280;52465;51.560;14.368;2023-07-13T19:26:45;100312.09;;;27.05;47.37
65553;BME280;52465;51.560;14.368;2023-07-13T19:33:15;100316.41;;;27.06;47.32
65553;BME280;52465;51.560;14.368;2023-07-13T19:43:56;100327.38;;;27.05;47.92
65553;BME280;52465;51.560;14.368;2023-07-13T19:46:29;100305.03;;;26.84;47.57
65553;BME280;52465;51.560;14.368;2023-07-13T19:56:37;100337.03;;;26.96;47.69
65553;BME280;52465;51.560;14.368;2023-07-13T20:01:02;100341.06;;;26.98;47.85
65553;BME280;52465;51.560;14.368;2023-07-13T20:05:34;100344.03;;;26.97;48.41
65553;BME280;52465;51.560;14.368;2023-07-13T20:08:00;100340.81;;;26.95;48.12